Time;durP1;ratioP1;P1;durP2;ratioP2;P2;SDS_P1;SDS_P2;PMS_P1;PMS_P2;Temp;Humidity;BMP_temperature;BMP_pressure;BME280_temperature;BME280_humidity;BME280_pressure;Samples;Min_cycle;Max_cycle;Signal;HPM_P1;HPM_P2
2022/02/07 00:02:01;;;;;;;6.78;4.03;;;3.60;89.30;;;;;;1905252;75;21089;-53
2022/02/07 00:04:29;;;;;;;7.72;4.03;;;3.60;89.10;;;;;;1904178;74;21097;-53
2022/02/07 00:06:55;;;;;;;6.55;4.42;;;3.60;89.50;;;;;;1905075;75;21020;-54
2022/02/07 00:09:24;;;;;;;6.33;4.03;;;3.50;88.80;;;;;;1905256;75;21023;-53
2022/02/07 00:11:53;;;;;;;6.15;4.95;;;3.40;88.50;;;;;;1905319;75;21040;-53
2022/02/07 00:14:23;;;;;;;6.55;4.25;;;3.40;88.80;;;;;;1905231;75;20999;-52
2022/02/07 00:16:52;;;;;;;6.20;4.58;;;3.50;89.40;;;;;;1905390;74;21137;-53
2022/02/07 00:19:25;;;;;;;8.03;4.70;;;3.50;89.00;;;;;;1905318;75;21466;-53
2022/02/07 00:21:53;;;;;;;6.20;4.20;;;3.50;89.40;;;;;;1913777;74;21055;-54
2022/02/07 00:24:22;;;;;;;10.70;5.80;;;3.50;88.70;;;;;;1924700;74;21085;-53
2022/02/07 00:26:51;;;;;;;8.43;5.22;;;3.50;88.80;;;;;;1924837;74;21046;-52
2022/02/07 00:29:21;;;;;;;6.85;4.15;;;3.40;88.80;;;;;;1924584;74;21023;-54
2022/02/07 00:31:50;;;;;;;10.85;5.00;;;3.30;88.60;;;;;;1924701;74;21015;-53
2022/02/07 00:34:19;;;;;;;9.35;5.62;;;3.30;89.10;;;;;;1924708;74;21092;-53
2022/02/07 00:36:49;;;;;;;9.55;5.12;;;3.30;89.40;;;;;;1924810;74;21116;-53
2022/02/07 00:39:27;;;;;;;7.75;4.35;;;3.30;89.50;;;;;;1924645;74;21076;-52
2022/02/07 00:41:56;;;;;;;7.65;5.12;;;3.30;89.40;;;;;;1923527;74;21586;-53
2022/02/07 00:44:20;;;;;;;7.20;4.53;;;3.20;89.10;;;;;;1923873;74;21023;-54
2022/02/07 00:46:57;;;;;;;11.95;5.47;;;3.20;89.20;;;;;;1924657;74;21089;-53
2022/02/07 00:49:20;;;;;;;8.25;5.08;;;3.20;89.50;;;;;;1923807;74;21042;-54
2022/02/07 00:51:50;;;;;;;10.55;5.55;;;3.20;89.70;;;;;;1924709;74;21477;-54
2022/02/07 00:54:19;;;;;;;8.93;4.95;;;3.30;89.70;;;;;;1924736;74;21058;-54
2022/02/07 00:56:50;;;;;;;7.95;4.87;;;3.40;89.90;;;;;;1924709;74;21144;-53
2022/02/07 00:59:19;;;;;;;7.50;4.85;;;3.50;90.10;;;;;;1924666;74;21116;-52
2022/02/07 01:01:48;;;;;;;8.80;5.62;;;3.50;89.90;;;;;;1924632;74;21132;-52
2022/02/07 01:04:18;;;;;;;8.05;5.42;;;3.50;89.50;;;;;;1924635;74;21096;-54
2022/02/07 01:06:51;;;;;;;10.40;5.78;;;3.40;89.60;;;;;;1918739;74;21055;-52
2022/02/07 01:09:31;;;;;;;9.13;6.05;;;3.40;89.80;;;;;;1924222;74;21132;-54
2022/02/07 01:14:44;;;;;;;8.58;5.75;;;3.50;90.00;;;;;;1923180;74;21055;-52
2022/02/07 01:20:12;;;;;;;13.30;7.12;;;3.60;90.10;;;;;;1924630;74;21097;-53
2022/02/07 01:22:44;;;;;;;12.88;6.78;;;3.60;90.10;;;;;;1914083;74;21124;-53
2022/02/07 01:50:50;;;;;;;5.17;3.22;;;3.40;90.00;;;;;;1905132;74;21098;-52
2022/02/07 01:53:15;;;;;;;8.05;3.98;;;3.40;90.10;;;;;;1903498;75;21192;-54
2022/02/07 01:55:37;;;;;;;7.00;4.33;;;3.30;90.40;;;;;;1903722;74;21078;-53
2022/02/07 01:58:04;;;;;;;5.37;3.83;;;3.40;90.30;;;;;;1905010;75;21043;-53
2022/02/07 02:00:36;;;;;;;10.45;3.70;;;3.50;90.30;;;;;;1905240;74;21085;-53
2022/02/07 02:03:05;;;;;;;7.62;4.55;;;3.50;90.30;;;;;;1905181;75;20999;-53
2022/02/07 02:05:37;;;;;;;6.70;3.72;;;3.40;90.10;;;;;;1903609;74;21035;-53
2022/02/07 02:08:12;;;;;;;7.20;4.33;;;3.40;90.10;;;;;;1905034;74;21027;-54
2022/02/07 02:10:45;;;;;;;6.53;4.05;;;3.40;90.10;;;;;;1905400;75;21085;-53
2022/02/07 02:13:36;;;;;;;5.20;3.37;;;3.40;90.20;;;;;;1904956;74;21036;-53
2022/02/07 02:45:44;;;;;;;5.92;3.25;;;3.50;90.20;;;;;;1924529;74;21093;-53
2022/02/07 02:48:25;;;;;;;4.47;3.00;;;3.50;90.40;;;;;;1924087;74;21063;-54
2022/02/07 02:50:52;;;;;;;4.28;3.62;;;3.50;90.20;;;;;;1923587;74;21528;-54
2022/02/07 02:53:21;;;;;;;4.12;3.27;;;3.50;90.30;;;;;;1924545;74;21030;-54
2022/02/07 02:55:53;;;;;;;9.58;5.67;;;3.50;90.30;;;;;;1924668;74;21586;-55
2022/02/07 02:58:24;;;;;;;6.92;4.17;;;3.50;90.40;;;;;;1924066;74;21059;-54
2022/02/07 03:00:55;;;;;;;3.98;2.77;;;3.50;90.30;;;;;;1924267;74;21047;-53
2022/02/07 03:03:26;;;;;;;7.70;2.85;;;3.50;90.30;;;;;;1920705;74;21030;-54
2022/02/07 03:05:55;;;;;;;4.95;2.50;;;3.50;90.30;;;;;;1924622;74;21050;-54
2022/02/07 03:08:25;;;;;;;2.67;2.40;;;3.60;90.20;;;;;;1924677;74;21508;-53
2022/02/07 03:11:05;;;;;;;7.45;2.70;;;3.60;90.30;;;;;;1924613;74;21039;-54
2022/02/07 03:13:45;;;;;;;7.33;2.85;;;3.70;90.30;;;;;;1924326;74;20995;-52
2022/02/07 03:18:50;;;;;;;4.50;2.77;;;3.80;90.20;;;;;;1924618;74;21038;-54
2022/02/07 03:21:19;;;;;;;3.77;2.58;;;3.90;90.10;;;;;;1924580;74;21058;-54
2022/02/07 03:23:49;;;;;;;4.00;2.62;;;3.90;89.80;;;;;;1924733;74;21050;-53
2022/02/07 03:26:19;;;;;;;6.47;2.60;;;3.90;89.60;;;;;;1924612;74;21148;-53
2022/02/07 03:28:51;;;;;;;3.30;2.42;;;3.90;89.70;;;;;;1924373;74;21071;-53
2022/02/07 03:31:21;;;;;;;2.80;2.47;;;3.90;89.80;;;;;;1924718;74;21069;-53
2022/02/07 03:33:51;;;;;;;11.33;5.80;;;4.00;89.50;;;;;;1924665;74;21092;-54
2022/02/07 03:36:20;;;;;;;6.00;3.83;;;4.00;89.60;;;;;;1924758;74;21127;-54
2022/02/07 03:38:50;;;;;;;2.67;2.27;;;4.00;89.30;;;;;;1924584;74;21062;-54
2022/02/07 03:41:19;;;;;;;4.33;2.20;;;4.00;88.70;;;;;;1924716;74;21015;-54
2022/02/07 03:43:49;;;;;;;3.30;2.20;;;4.10;89.00;;;;;;1924611;74;21011;-55
2022/02/07 03:46:18;;;;;;;6.60;2.80;;;4.10;88.60;;;;;;1924639;74;21023;-53
2022/02/07 03:48:48;;;;;;;3.65;2.60;;;4.10;88.40;;;;;;1924630;74;20995;-52
2022/02/07 03:51:17;;;;;;;5.20;2.58;;;4.10;88.40;;;;;;1924674;74;21084;-54
2022/02/07 03:53:47;;;;;;;4.17;2.52;;;4.20;88.80;;;;;;1924691;74;21039;-54
2022/02/07 03:56:16;;;;;;;3.50;2.40;;;4.20;88.30;;;;;;1924611;74;21062;-55
2022/02/07 03:58:46;;;;;;;2.25;1.85;;;4.20;88.70;;;;;;1924719;74;21112;-55
2022/02/07 04:01:19;;;;;;;4.65;2.55;;;4.20;88.00;;;;;;1924621;74;21081;-55
2022/02/07 04:03:48;;;;;;;3.15;2.12;;;4.30;87.70;;;;;;1924537;74;21038;-54
2022/02/07 04:06:20;;;;;;;7.17;2.65;;;4.30;88.50;;;;;;1924621;74;21015;-55
2022/02/07 04:08:59;;;;;;;2.55;1.85;;;4.30;88.00;;;;;;1922762;74;21108;-54
2022/02/07 04:11:35;;;;;;;12.15;3.33;;;4.30;88.00;;;;;;1923047;74;21485;-55
2022/02/07 04:14:00;;;;;;;5.62;3.75;;;4.30;87.50;;;;;;1924135;74;21127;-56
2022/02/07 04:16:36;;;;;;;7.65;3.98;;;4.30;87.50;;;;;;1924606;74;21054;-55
2022/02/07 04:19:06;;;;;;;7.12;4.58;;;4.20;87.90;;;;;;1923504;74;21071;-54
2022/02/07 04:21:34;;;;;;;10.45;4.92;;;4.10;88.30;;;;;;1924123;74;21038;-54
2022/02/07 04:24:05;;;;;;;11.18;5.55;;;4.10;88.30;;;;;;1917278;74;21027;-54
2022/02/07 04:26:36;;;;;;;6.05;4.47;;;4.10;88.60;;;;;;1904061;74;21026;-54
2022/02/07 04:29:07;;;;;;;9.48;4.45;;;4.00;88.40;;;;;;1905317;74;21077;-52
2022/02/07 04:31:38;;;;;;;8.75;6.20;;;4.00;88.50;;;;;;1905199;75;21051;-52
2022/02/07 04:34:09;;;;;;;8.13;5.08;;;4.00;88.70;;;;;;1905382;74;21458;-53
2022/02/07 04:36:41;;;;;;;8.55;4.75;;;4.00;88.80;;;;;;1905297;75;21019;-54
2022/02/07 04:39:09;;;;;;;6.92;4.83;;;4.00;89.20;;;;;;1905355;74;20999;-54
2022/02/07 04:41:42;;;;;;;10.30;5.08;;;3.90;88.70;;;;;;1905314;75;21089;-54
2022/02/07 04:44:20;;;;;;;10.30;5.83;;;3.90;89.00;;;;;;1905431;75;21117;-53
2022/02/07 04:47:07;;;;;;;7.78;5.15;;;4.00;89.40;;;;;;1904814;74;21088;-54
2022/02/07 04:50:03;;;;;;;10.70;5.22;;;4.00;89.20;;;;;;1904343;74;21069;-54
2022/02/07 04:53:22;;;;;;;10.72;5.28;;;4.00;89.30;;;;;;1903468;74;21069;-53
2022/02/07 04:55:06;;;;;;;8.13;4.05;;;4.10;89.00;;;;;;1884654;74;21094;-54
2022/02/07 04:57:46;;;;;;;10.43;5.10;;;4.10;89.10;;;;;;1904153;74;21040;-53
2022/02/07 05:00:10;;;;;;;2.65;2.10;;;4.20;88.70;;;;;;1903734;74;21105;-53
2022/02/07 05:05:23;;;;;;;6.50;1.65;;;4.20;88.30;;;;;;1905304;75;21039;-54
2022/02/07 05:16:02;;;;;;;5.05;2.65;;;4.40;87.20;;;;;;1905226;75;21035;-54
2022/02/07 05:18:32;;;;;;;5.80;2.40;;;4.40;85.80;;;;;;1905206;75;21072;-54
2022/02/07 05:21:03;;;;;;;1.60;1.50;;;4.40;86.20;;;;;;1886591;75;21100;-53
2022/02/07 05:23:37;;;;;;;4.60;2.10;;;4.40;86.00;;;;;;1903580;74;21216;-53
2022/02/07 05:26:20;;;;;;;3.83;1.95;;;4.50;86.20;;;;;;1903861;74;21636;-54
2022/02/07 05:29:07;;;;;;;1.10;1.00;;;4.40;86.20;;;;;;1905143;75;21046;-53
2022/02/07 05:31:53;;;;;;;3.45;1.35;;;4.50;84.60;;;;;;1843347;77;21053;-54
2022/02/07 05:34:34;;;;;;;2.50;2.08;;;4.50;84.10;;;;;;1882145;75;21043;-53
2022/02/07 05:37:05;;;;;;;4.62;2.35;;;4.50;84.80;;;;;;1903097;74;21050;-53
2022/02/07 05:39:45;;;;;;;2.15;1.90;;;4.60;85.30;;;;;;1904706;74;21071;-54
2022/02/07 05:42:24;;;;;;;1.02;0.93;;;4.60;84.90;;;;;;1904400;74;21050;-53
2022/02/07 05:45:07;;;;;;;13.72;5.12;;;4.60;83.70;;;;;;1903612;74;21117;-54
2022/02/07 05:47:44;;;;;;;9.73;3.27;;;4.60;83.40;;;;;;1903403;74;21068;-53
2022/02/07 05:50:21;;;;;;;2.02;1.72;;;4.70;84.40;;;;;;1873611;74;21168;-55
2022/02/07 05:53:01;;;;;;;2.83;2.10;;;4.70;84.20;;;;;;1843285;77;21077;-55
2022/02/07 05:55:41;;;;;;;4.67;2.65;;;4.80;84.20;;;;;;1840934;77;21169;-52
2022/02/07 05:58:15;;;;;;;3.40;2.20;;;4.80;84.10;;;;;;1904113;74;21069;-54
2022/02/07 06:00:52;;;;;;;2.30;1.72;;;4.80;83.90;;;;;;1904371;74;21056;-53
2022/02/07 06:03:22;;;;;;;7.50;2.33;;;4.80;83.40;;;;;;1905172;75;20991;-54
2022/02/07 06:05:53;;;;;;;4.55;1.80;;;4.90;83.20;;;;;;1903929;74;21501;-53
2022/02/07 06:08:24;;;;;;;5.67;2.50;;;4.90;82.70;;;;;;1904957;74;21023;-54
2022/02/07 06:10:54;;;;;;;7.35;2.08;;;4.90;83.90;;;;;;1905156;74;21036;-53
2022/02/07 06:13:24;;;;;;;4.70;1.98;;;4.90;83.00;;;;;;1905185;75;20991;-54
2022/02/07 06:15:58;;;;;;;6.03;1.77;;;5.00;83.50;;;;;;1904787;74;21071;-54
2022/02/07 06:18:29;;;;;;;5.78;2.25;;;5.00;83.40;;;;;;1905095;75;21073;-54
2022/02/07 06:21:05;;;;;;;1.30;1.20;;;5.00;83.30;;;;;;1905188;75;21020;-54
2022/02/07 06:23:29;;;;;;;2.50;1.60;;;5.00;83.00;;;;;;1903957;74;21493;-55
2022/02/07 06:26:00;;;;;;;4.17;2.12;;;5.00;83.10;;;;;;1918617;74;21069;-53
2022/02/07 06:28:31;;;;;;;2.40;2.02;;;5.00;83.10;;;;;;1924436;74;21553;-54
2022/02/07 06:31:02;;;;;;;5.58;2.12;;;5.10;83.30;;;;;;1923934;74;21050;-54
2022/02/07 06:33:32;;;;;;;3.17;1.85;;;5.10;82.50;;;;;;1924502;74;20999;-55
2022/02/07 06:36:02;;;;;;;2.85;1.85;;;5.10;82.60;;;;;;1924365;74;21124;-53
2022/02/07 06:38:34;;;;;;;4.55;1.85;;;5.10;83.30;;;;;;1924618;74;21046;-54
2022/02/07 06:41:03;;;;;;;7.37;2.25;;;5.10;82.00;;;;;;1924647;74;21023;-55
2022/02/07 06:43:34;;;;;;;2.62;1.82;;;5.20;82.20;;;;;;1924527;74;21014;-55
2022/02/07 06:46:05;;;;;;;3.85;1.82;;;5.20;82.50;;;;;;1924449;74;21114;-54
2022/02/07 06:48:35;;;;;;;3.08;2.00;;;5.20;82.50;;;;;;1924528;74;21022;-53
2022/02/07 06:51:07;;;;;;;2.90;1.85;;;5.20;83.00;;;;;;1924534;74;21011;-54
2022/02/07 06:53:38;;;;;;;3.47;2.45;;;5.20;82.00;;;;;;1924541;74;21075;-54
2022/02/07 06:56:07;;;;;;;3.15;2.10;;;5.20;82.70;;;;;;1924505;74;21076;-53
2022/02/07 06:58:38;;;;;;;4.65;2.05;;;5.20;82.40;;;;;;1924683;74;21081;-54
2022/02/07 07:01:09;;;;;;;5.45;1.70;;;5.30;82.00;;;;;;1924694;74;21089;-54
2022/02/07 07:03:43;;;;;;;4.72;2.58;;;5.30;82.40;;;;;;1924830;74;21465;-53
2022/02/07 07:06:12;;;;;;;3.72;1.65;;;5.40;82.10;;;;;;1924600;74;21085;-54
2022/02/07 07:08:47;;;;;;;5.25;1.90;;;5.40;81.50;;;;;;1924773;74;21053;-54
2022/02/07 07:11:17;;;;;;;3.70;2.30;;;5.40;82.00;;;;;;1924287;74;21116;-55
2022/02/07 07:13:54;;;;;;;8.70;2.42;;;5.50;82.20;;;;;;1924568;74;21097;-54
2022/02/07 07:16:38;;;;;;;2.58;1.87;;;5.50;81.70;;;;;;1923192;74;21140;-54
2022/02/07 07:18:46;;;;;;;5.58;2.27;;;5.60;82.20;;;;;;1921631;74;20991;-54
2022/02/07 07:21:16;;;;;;;2.35;1.57;;;5.60;82.00;;;;;;1924707;74;21015;-54
2022/02/07 07:23:45;;;;;;;3.50;1.85;;;5.60;80.90;;;;;;1924450;74;21015;-54
2022/02/07 07:26:16;;;;;;;9.33;2.17;;;5.70;82.00;;;;;;1897129;74;21122;-55
2022/02/07 07:28:46;;;;;;;2.75;2.02;;;5.80;82.10;;;;;;1895306;74;21109;-53
2022/02/07 07:31:16;;;;;;;2.42;1.62;;;5.80;82.20;;;;;;1894809;74;21073;-52
2022/02/07 07:33:51;;;;;;;7.28;2.67;;;5.80;82.00;;;;;;1883053;74;21014;-53
2022/02/07 07:36:17;;;;;;;4.80;1.92;;;5.90;82.20;;;;;;1891267;74;21100;-54
2022/02/07 07:38:47;;;;;;;6.42;1.92;;;5.90;80.80;;;;;;1865173;75;21018;-55
2022/02/07 07:41:18;;;;;;;4.83;3.30;;;6.00;81.20;;;;;;1886945;74;21122;-54
2022/02/07 07:43:50;;;;;;;8.43;3.98;;;6.00;81.50;;;;;;1886220;74;21046;-56
2022/02/07 07:46:37;;;;;;;3.17;2.00;;;6.00;80.90;;;;;;1890171;75;21061;-55
2022/02/07 07:49:29;;;;;;;2.37;1.80;;;6.10;81.40;;;;;;1854994;75;21168;-51
2022/02/07 07:51:55;;;;;;;5.22;2.55;;;6.10;81.30;;;;;;1883312;74;21083;-55
2022/02/07 07:54:51;;;;;;;6.40;2.50;;;6.10;81.50;;;;;;1884818;74;21083;-54
2022/02/07 08:02:54;;;;;;;4.03;1.92;;;6.20;81.50;;;;;;1879719;75;21008;-53
2022/02/07 08:08:19;;;;;;;4.62;2.02;;;6.20;80.90;;;;;;1869319;75;21093;-49
2022/02/07 08:10:50;;;;;;;4.20;2.62;;;6.30;80.50;;;;;;1884513;74;21110;-51
2022/02/07 08:13:16;;;;;;;5.57;2.60;;;6.40;79.90;;;;;;1900212;74;21145;-51
2022/02/07 08:15:43;;;;;;;7.33;2.47;;;6.40;80.30;;;;;;1890868;74;21323;-49
2022/02/07 08:18:13;;;;;;;3.87;2.05;;;6.40;79.70;;;;;;1942763;74;21039;-49
2022/02/07 08:20:42;;;;;;;4.35;2.83;;;6.40;80.10;;;;;;1897717;74;21158;-52
2022/02/07 08:23:11;;;;;;;3.40;2.60;;;6.50;79.30;;;;;;1881620;75;21126;-52
2022/02/07 08:25:40;;;;;;;7.15;3.27;;;6.50;80.10;;;;;;1875954;75;21044;-49
2022/02/07 08:28:10;;;;;;;6.50;4.15;;;6.60;79.80;;;;;;1872494;75;21110;-51
2022/02/07 08:30:39;;;;;;;6.65;3.10;;;6.60;80.50;;;;;;1872320;77;21072;-48
2022/02/07 08:33:08;;;;;;;6.17;3.20;;;6.70;79.60;;;;;;1872526;77;21037;-52
2022/02/07 08:35:38;;;;;;;5.78;3.25;;;6.70;79.40;;;;;;1873913;75;21102;-48
2022/02/07 08:38:07;;;;;;;5.58;3.25;;;6.80;79.90;;;;;;1887629;75;21059;-51
2022/02/07 08:40:37;;;;;;;6.47;3.30;;;6.80;79.30;;;;;;1872511;77;21068;-50
2022/02/07 08:43:07;;;;;;;7.20;3.90;;;6.90;79.30;;;;;;1886953;75;20996;-53
2022/02/07 08:45:37;;;;;;;5.30;3.47;;;6.90;79.20;;;;;;1890933;74;21049;-53
2022/02/07 08:48:07;;;;;;;7.25;4.45;;;6.90;78.80;;;;;;1901160;75;21079;-52
2022/02/07 08:50:39;;;;;;;3.92;3.20;;;6.90;78.90;;;;;;1900069;75;21189;-51
2022/02/07 08:53:08;;;;;;;4.87;3.92;;;7.00;79.10;;;;;;1894335;75;21081;-52
2022/02/07 08:55:41;;;;;;;6.95;4.60;;;7.00;79.20;;;;;;1885634;75;21025;-52
2022/02/07 08:58:13;;;;;;;5.87;3.15;;;7.00;79.20;;;;;;1890870;74;21606;-54
2022/02/07 09:03:26;;;;;;;7.50;4.78;;;7.00;79.40;;;;;;1886320;75;21128;-53
2022/02/07 09:06:04;;;;;;;5.50;4.10;;;7.00;79.70;;;;;;1885426;74;20984;-49
2022/02/07 09:08:25;;;;;;;7.75;4.78;;;7.00;79.60;;;;;;1877209;75;21093;-49
2022/02/07 09:10:53;;;;;;;10.00;5.67;;;7.00;80.10;;;;;;1904878;74;21012;-52
2022/02/07 09:13:29;;;;;;;8.00;4.30;;;7.00;80.50;;;;;;1898233;75;21051;-49
2022/02/07 09:16:36;;;;;;;7.12;3.62;;;7.00;80.50;;;;;;1888865;74;21032;-51
2022/02/07 09:18:27;;;;;;;6.73;4.50;;;7.00;80.40;;;;;;1876817;74;21698;-48
2022/02/07 09:20:58;;;;;;;6.40;5.00;;;7.00;80.30;;;;;;1876131;75;21210;-51
2022/02/07 09:23:28;;;;;;;9.15;5.10;;;6.90;80.60;;;;;;1871623;74;21176;-50
2022/02/07 09:25:58;;;;;;;11.18;4.80;;;6.90;80.80;;;;;;1892165;74;21094;-48
2022/02/07 09:28:28;;;;;;;6.62;4.42;;;6.90;81.00;;;;;;1948531;74;21026;-48
2022/02/07 09:30:58;;;;;;;9.00;5.10;;;6.90;81.40;;;;;;1927677;74;21137;-49
2022/02/07 09:33:29;;;;;;;4.70;2.83;;;6.90;81.50;;;;;;1892018;75;21019;-50
2022/02/07 09:35:58;;;;;;;6.03;4.17;;;7.00;81.30;;;;;;1883968;74;21015;-49
2022/02/07 09:38:28;;;;;;;6.53;3.80;;;7.00;81.20;;;;;;1890120;74;21026;-52
2022/02/07 09:40:59;;;;;;;6.22;4.33;;;7.00;81.30;;;;;;1892995;75;21085;-49
2022/02/07 09:43:32;;;;;;;8.28;4.58;;;7.10;81.60;;;;;;1905289;74;20987;-50
2022/02/07 09:46:07;;;;;;;9.20;4.85;;;7.10;81.40;;;;;;1877062;75;21544;-51
2022/02/07 09:48:42;;;;;;;4.60;3.52;;;7.20;80.90;;;;;;1873052;75;21029;-48
2022/02/07 09:51:13;;;;;;;5.97;4.60;;;7.30;79.90;;;;;;1872466;75;21089;-47
2022/02/07 09:53:43;;;;;;;6.03;3.33;;;7.30;80.30;;;;;;1945903;74;21082;-48
2022/02/07 09:56:13;;;;;;;7.90;4.25;;;7.40;79.30;;;;;;1948381;74;21046;-49
2022/02/07 09:58:42;;;;;;;6.60;3.58;;;7.40;80.00;;;;;;1924566;74;21082;-50
2022/02/07 10:01:23;;;;;;;4.90;2.87;;;7.50;79.20;;;;;;1872432;77;21081;-51
2022/02/07 10:03:58;;;;;;;7.60;4.12;;;7.50;78.40;;;;;;1871563;76;21023;-51
2022/02/07 10:09:14;;;;;;;9.13;4.12;;;7.60;79.10;;;;;;1874746;75;21011;-52
2022/02/07 10:11:43;;;;;;;9.70;4.25;;;7.70;79.40;;;;;;1887224;74;21141;-48
2022/02/07 10:14:19;;;;;;;8.43;3.72;;;7.80;79.10;;;;;;1871531;76;21470;-47
2022/02/07 10:16:50;;;;;;;8.68;4.10;;;7.80;79.00;;;;;;1908547;74;21074;-51
2022/02/07 10:19:28;;;;;;;11.53;3.98;;;7.90;79.00;;;;;;1902483;73;21043;-49
2022/02/07 10:39:13;;;;;;;7.28;4.28;;;8.10;75.60;;;;;;1911731;74;21030;-47
2022/02/07 10:44:34;;;;;;;9.13;6.03;;;8.10;75.10;;;;;;1892381;74;21046;-47
2022/02/07 10:47:06;;;;;;;11.33;5.15;;;8.10;74.80;;;;;;1898054;73;21125;-48
2022/02/07 10:49:30;;;;;;;9.25;4.85;;;8.10;75.20;;;;;;1892247;73;21155;-48
2022/02/07 10:52:00;;;;;;;6.40;3.85;;;8.20;74.40;;;;;;1898572;73;21159;-50
2022/02/07 10:54:30;;;;;;;5.20;3.65;;;8.10;74.30;;;;;;1918471;73;21133;-52
2022/02/07 10:57:05;;;;;;;4.95;3.60;;;8.20;74.60;;;;;;1892589;74;21066;-51
2022/02/07 10:59:31;;;;;;;3.45;2.12;;;8.20;74.70;;;;;;1890108;74;21153;-53
2022/02/07 11:02:40;;;;;;;5.75;4.10;;;8.20;73.70;;;;;;1900482;73;21020;-52
2022/02/07 11:04:46;;;;;;;4.12;2.92;;;8.30;74.30;;;;;;1887065;76;21058;-48
2022/02/07 11:07:13;;;;;;;6.67;3.55;;;8.30;74.00;;;;;;1901465;74;21465;-50
2022/02/07 11:10:03;;;;;;;6.60;3.05;;;8.30;74.50;;;;;;1923530;74;21138;-54
2022/02/07 11:12:40;;;;;;;4.90;3.15;;;8.30;74.90;;;;;;1919452;74;21113;-51
2022/02/07 11:23:24;;;;;;;5.93;3.40;;;8.30;73.50;;;;;;1924110;74;21096;-47
2022/02/07 11:25:54;;;;;;;6.20;3.65;;;8.30;74.00;;;;;;1922998;74;21077;-48
2022/02/07 11:28:27;;;;;;;2.65;2.12;;;8.30;74.50;;;;;;1914045;74;21027;-48
2022/02/07 11:31:01;;;;;;;2.77;2.05;;;8.20;74.10;;;;;;1904620;75;21105;-50
2022/02/07 11:33:52;;;;;;;3.50;2.45;;;8.20;74.10;;;;;;1904682;75;20992;-51
2022/02/07 11:36:29;;;;;;;3.52;2.02;;;8.20;74.30;;;;;;1904789;75;21105;-51
2022/02/07 11:39:01;;;;;;;6.53;3.85;;;8.20;73.70;;;;;;1904613;74;20999;-51
2022/02/07 11:41:30;;;;;;;5.75;2.98;;;8.20;74.50;;;;;;1904782;74;21079;-50
2022/02/07 11:44:00;;;;;;;6.30;3.22;;;8.20;74.30;;;;;;1904520;74;21071;-48
2022/02/07 11:46:29;;;;;;;6.50;3.35;;;8.10;74.30;;;;;;1904336;75;21085;-53
2022/02/07 11:48:58;;;;;;;3.55;2.52;;;8.10;74.50;;;;;;1904610;74;21134;-48
2022/02/07 11:51:37;;;;;;;6.15;3.50;;;8.10;74.40;;;;;;1904569;75;21085;-51
2022/02/07 11:54:07;;;;;;;5.50;2.92;;;8.10;74.60;;;;;;1902823;75;21027;-51
2022/02/07 12:02:09;;;;;;;4.33;2.70;;;8.00;75.00;;;;;;1904498;74;21093;-47
2022/02/07 12:04:42;;;;;;;9.33;3.40;;;8.00;75.00;;;;;;1904698;75;21105;-52
2022/02/07 12:07:13;;;;;;;4.40;2.98;;;8.00;75.10;;;;;;1904345;75;21074;-55
2022/02/07 12:10:06;;;;;;;5.05;3.12;;;8.00;75.20;;;;;;1904374;74;21039;-51
2022/02/07 12:12:45;;;;;;;4.78;2.52;;;8.00;75.10;;;;;;1904536;74;21020;-49
2022/02/07 12:15:34;;;;;;;4.28;3.08;;;8.00;75.00;;;;;;1904512;75;21070;-51
2022/02/07 12:18:17;;;;;;;8.00;2.70;;;8.00;74.90;;;;;;1904751;75;21321;-52
2022/02/07 12:20:48;;;;;;;5.10;3.20;;;8.00;74.90;;;;;;1904972;74;21106;-52
2022/02/07 12:23:19;;;;;;;10.13;3.72;;;8.00;74.90;;;;;;1904477;75;21085;-54
2022/02/07 12:25:57;;;;;;;5.60;2.98;;;8.00;74.70;;;;;;1904464;75;21018;-51
2022/02/07 12:31:18;;;;;;;6.17;3.83;;;8.00;75.00;;;;;;1924143;74;21152;-52
2022/02/07 12:34:02;;;;;;;6.60;3.27;;;7.90;74.80;;;;;;1924073;74;21006;-52
2022/02/07 12:36:33;;;;;;;6.10;4.25;;;7.90;74.90;;;;;;1924012;74;21072;-48
2022/02/07 12:39:05;;;;;;;4.53;2.65;;;7.90;75.20;;;;;;1923875;74;21074;-49
2022/02/07 12:41:35;;;;;;;8.03;4.00;;;7.90;74.90;;;;;;1923977;74;21011;-51
2022/02/07 12:44:07;;;;;;;5.03;3.70;;;7.90;74.60;;;;;;1923811;74;21027;-51
2022/02/07 12:46:46;;;;;;;2.90;2.25;;;7.90;74.70;;;;;;1923908;74;21090;-52
2022/02/07 12:49:13;;;;;;;4.70;2.90;;;7.90;74.40;;;;;;1922752;74;21034;-51
2022/02/07 12:51:43;;;;;;;6.15;3.92;;;7.90;74.60;;;;;;1923862;74;21519;-52
2022/02/07 12:54:15;;;;;;;11.97;4.00;;;7.90;74.40;;;;;;1924001;74;21022;-49
2022/02/07 12:56:44;;;;;;;3.30;1.98;;;7.90;74.80;;;;;;1924063;74;21128;-51
2022/02/07 12:59:13;;;;;;;3.55;2.65;;;7.90;74.70;;;;;;1923698;74;21096;-50
2022/02/07 13:01:45;;;;;;;10.65;4.97;;;7.90;74.80;;;;;;1923782;74;21058;-51
2022/02/07 13:04:16;;;;;;;6.45;4.10;;;7.90;75.00;;;;;;1923879;74;21693;-51
2022/02/07 13:06:53;;;;;;;7.40;3.77;;;7.90;74.60;;;;;;1923179;74;21096;-50
2022/02/07 13:09:29;;;;;;;11.63;4.12;;;7.90;74.80;;;;;;1923926;74;21548;-50
2022/02/07 13:12:36;;;;;;;6.60;3.33;;;8.00;75.00;;;;;;1923954;74;21470;-49
2022/02/07 13:14:41;;;;;;;4.25;2.77;;;8.00;74.60;;;;;;1919193;74;21038;-50
2022/02/07 13:17:11;;;;;;;3.35;2.42;;;8.00;74.60;;;;;;1923949;74;21532;-48
2022/02/07 13:19:42;;;;;;;4.97;3.50;;;8.00;74.80;;;;;;1924091;74;21050;-47
2022/02/07 13:22:15;;;;;;;7.17;3.95;;;7.90;74.70;;;;;;1923757;74;21014;-48
2022/02/07 13:24:43;;;;;;;7.95;3.80;;;7.90;74.90;;;;;;1923880;74;21101;-48
2022/02/07 13:27:15;;;;;;;4.22;3.35;;;7.90;74.90;;;;;;1923892;74;21066;-48
2022/02/07 13:29:51;;;;;;;4.03;2.50;;;7.90;75.10;;;;;;1913156;74;21168;-46
2022/02/07 13:32:31;;;;;;;6.37;4.00;;;7.80;75.20;;;;;;1904680;75;21489;-46
2022/02/07 13:35:05;;;;;;;4.75;3.20;;;7.80;75.10;;;;;;1904575;74;21063;-48
2022/02/07 13:37:37;;;;;;;2.87;2.47;;;7.80;75.00;;;;;;1904478;74;21085;-48
2022/02/07 13:40:08;;;;;;;3.42;2.65;;;7.80;75.50;;;;;;1904558;74;21367;-50
2022/02/07 13:42:39;;;;;;;6.20;3.20;;;7.70;75.30;;;;;;1904693;75;21681;-47
2022/02/07 13:45:14;;;;;;;8.65;3.83;;;7.70;74.90;;;;;;1904458;74;21086;-50
2022/02/07 13:47:49;;;;;;;3.60;3.10;;;7.70;75.20;;;;;;1904821;75;21462;-48
2022/02/07 13:50:22;;;;;;;6.03;3.10;;;7.70;75.40;;;;;;1903985;74;21157;-48
2022/02/07 13:52:53;;;;;;;4.95;3.30;;;7.60;75.20;;;;;;1904638;75;21031;-48
2022/02/07 13:55:38;;;;;;;9.28;3.47;;;7.60;74.80;;;;;;1904859;75;21059;-51
2022/02/07 13:58:09;;;;;;;9.20;3.37;;;7.60;74.80;;;;;;1904423;75;21024;-48
2022/02/07 14:00:50;;;;;;;7.70;3.37;;;7.60;75.00;;;;;;1904765;75;21030;-48
2022/02/07 14:03:24;;;;;;;2.37;1.90;;;7.60;74.90;;;;;;1904620;75;20991;-52
2022/02/07 14:05:55;;;;;;;12.75;3.60;;;7.60;75.20;;;;;;1904235;74;21019;-52
2022/02/07 14:08:39;;;;;;;8.75;3.98;;;7.50;75.20;;;;;;1903726;75;21027;-50
2022/02/07 14:11:11;;;;;;;3.72;2.65;;;7.50;75.40;;;;;;1902639;75;21109;-55
2022/02/07 14:13:42;;;;;;;6.97;3.17;;;7.50;74.80;;;;;;1901782;75;21039;-51
2022/02/07 14:16:12;;;;;;;7.05;4.28;;;7.50;74.80;;;;;;1902581;75;21148;-50
2022/02/07 14:18:47;;;;;;;5.00;3.30;;;7.40;75.10;;;;;;1903171;75;21031;-52
2022/02/07 14:21:18;;;;;;;6.67;3.75;;;7.50;75.40;;;;;;1903362;75;21031;-48
2022/02/07 14:23:49;;;;;;;8.18;3.20;;;7.40;75.30;;;;;;1903191;75;21102;-53
2022/02/07 14:26:20;;;;;;;4.25;3.00;;;7.40;75.00;;;;;;1903191;75;21070;-50
2022/02/07 14:28:54;;;;;;;10.85;4.03;;;7.40;75.40;;;;;;1903344;75;21457;-50
2022/02/07 14:31:24;;;;;;;5.15;3.42;;;7.40;75.50;;;;;;1903539;75;21137;-51
2022/02/07 14:33:54;;;;;;;12.15;4.20;;;7.30;75.30;;;;;;1903350;75;21583;-51
2022/02/07 14:36:27;;;;;;;4.85;2.98;;;7.30;75.50;;;;;;1903283;75;21023;-50
2022/02/07 14:38:54;;;;;;;5.12;3.08;;;7.30;75.50;;;;;;1902913;75;21068;-50
2022/02/07 14:41:24;;;;;;;6.75;4.30;;;7.30;75.40;;;;;;1903236;75;21078;-50
2022/02/07 14:44:00;;;;;;;9.55;4.47;;;7.30;75.60;;;;;;1903133;75;21043;-49
2022/02/07 14:46:32;;;;;;;5.28;3.50;;;7.30;76.10;;;;;;1902481;75;21092;-50
2022/02/07 14:48:55;;;;;;;7.47;4.72;;;7.30;75.70;;;;;;1902166;75;21087;-50
2022/02/07 14:51:25;;;;;;;5.60;3.37;;;7.30;75.50;;;;;;1903328;75;21123;-49
2022/02/07 14:53:54;;;;;;;6.58;3.98;;;7.20;75.30;;;;;;1903328;75;21047;-50
2022/02/07 14:56:25;;;;;;;10.82;4.55;;;7.20;75.50;;;;;;1903184;75;21085;-50
2022/02/07 14:58:54;;;;;;;4.30;2.70;;;7.20;75.50;;;;;;1903374;75;21042;-49
2022/02/07 15:01:23;;;;;;;11.70;4.83;;;7.20;75.60;;;;;;1903201;75;21031;-49
2022/02/07 15:03:54;;;;;;;4.35;3.25;;;7.20;75.60;;;;;;1903262;75;21027;-48
2022/02/07 15:06:24;;;;;;;4.85;3.05;;;7.20;75.40;;;;;;1903193;75;21528;-51
2022/02/07 15:08:53;;;;;;;4.62;2.98;;;7.20;75.50;;;;;;1903323;75;21019;-49
2022/02/07 15:11:24;;;;;;;6.03;3.90;;;7.20;75.60;;;;;;1903215;75;21089;-49
2022/02/07 15:13:54;;;;;;;10.38;4.80;;;7.20;75.70;;;;;;1903400;75;21075;-51
2022/02/07 15:16:23;;;;;;;6.20;3.98;;;7.20;75.90;;;;;;1903218;75;21081;-49
2022/02/07 15:18:53;;;;;;;10.35;4.92;;;7.20;75.90;;;;;;1903400;75;21423;-49
2022/02/07 15:21:27;;;;;;;5.85;3.92;;;7.20;75.90;;;;;;1903331;75;21020;-49
2022/02/07 15:23:53;;;;;;;8.10;3.62;;;7.20;76.00;;;;;;1902303;75;21539;-49
2022/02/07 15:26:24;;;;;;;6.45;3.47;;;7.20;75.70;;;;;;1903362;75;21035;-50